Aeroporto :
LOGIN :

Iscrizione | Disclaimer

   EN    FR    IT 

 










Sommario :    VFR   VFR Marginale   IFR   IFR Intensivo   IFR Molto Intensivo
Visibilità : 
Base nubi : 
>= 8 km
>= 3000ft
5 / 8 km
1000 / 3000 ft
1500m / 5 km
500 / 1000 ft
800 / 1500m
200 / 500 ft
< 800m
< 200 ft
Simboli :   Temporali  Nebbia  Neve Forte  Precipitazioni Forti  Vento > 20 kt
SIGMETs :   Varie  Temporali  Ghiacco  Turbolenza  Onda orograficha  Ceneri Vulcaniche






- Altitudine del aeroporto : 204 ft
- Codice IATA : KSU


ENKB - Kristiansund , Kvernberget

ULTIMO METAR :
  • 040950Z 25009KT 9999 VCSH FEW010 SCT036 BKN048 00/M05 Q1014 RMK WIND 745FT 26011KT

METARs OBSOLETI :
  • 040920Z 23005KT 180V280 9999 VCSH FEW025 BKN044 M00/M04 Q1014 RMK WIND 745FT 26013KT
  • 040850Z 23008KT 180V270 8000 -SN FEW005 SCT012 BKN032 M02/M03 Q1013 RMK WIND 745FT 25011KT
  • 040820Z 23006KT 8000 VCSH FEW004 SCT012 BKN025 M01/M04 Q1012 RMK WIND 745FT 23011KT
  • 040750Z 25004KT 9000 VCSH FEW006 SCT007 BKN038 M02/M04 Q1012 RMK WIND 745FT 27006KT
  • 040720Z 28017KT 250V320 3200 SHSNGS FEW004 SCT006 BKN013 M02/M05 Q1011 RMK WIND 745FT 30026KT

TAF TAF ENKB
Valido dal 04 a 09 ore il 04 a 18 ore UTC


040800Z 0409/0418 24008KT 9999 FEW015TCU SCT030
TEMPO 0409/0412 30018KT 0800 SHSNGS VV007
TEMPO 0409/0412 SCT015CB



MetMap, La meteo Aeronautica in un colpo d'occhio ! - Copyright ORBIFLY Dicembre 2007 - Disclaimer

ORBIFLY MET'MAP TEAM :

Programmazione e sviluppo : Alexandra Zaïnal
Concezione : Baudouin d'Aumeries
Aiuto per la programmazione : Marc-Olivier Méhu
Supporto tecnico e logistico : Manuel Goepfert
Aiuto per la traduzione : Arnaldo La Scala

Contatto : metmap@orbifly.com




FONTI E CREDITI :

   NOAA